Time;durP1;ratioP1;P1;durP2;ratioP2;P2;SDS_P1;SDS_P2;PMS_P1;PMS_P2;Temp;Humidity;BMP_temperature;BMP_pressure;BME280_temperature;BME280_humidity;BME280_pressure;Samples;Min_cycle;Max_cycle;Signal;HPM_P1;HPM_P2
2022/01/08 00:00:51;;;;;;;12.02;11.02;;;;;;;-0.75;100.00;101119.50;5214609;28;20058;-63
2022/01/08 00:03:22;;;;;;;12.65;11.55;;;;;;;-0.95;100.00;101097.09;5214564;28;20187;-63
2022/01/08 00:05:56;;;;;;;12.18;10.23;;;;;;;-0.77;100.00;101132.09;5215009;28;20028;-64
2022/01/08 00:08:27;;;;;;;10.88;10.05;;;;;;;-0.82;100.00;101133.63;5214873;28;20021;-66
2022/01/08 00:10:57;;;;;;;13.98;12.68;;;;;;;-0.85;100.00;101137.44;5214713;28;20404;-64
2022/01/08 00:13:28;;;;;;;13.93;12.65;;;;;;;-1.12;100.00;101100.81;5214537;28;20388;-66
2022/01/08 00:15:58;;;;;;;14.55;13.30;;;;;;;-0.92;100.00;101144.47;5214705;28;20028;-63
2022/01/08 00:18:29;;;;;;;23.17;14.13;;;;;;;-0.93;100.00;101152.59;5214841;28;20017;-64
2022/01/08 00:20:59;;;;;;;11.57;10.77;;;;;;;-0.91;100.00;101148.78;5214707;28;20124;-64
2022/01/08 00:23:30;;;;;;;16.02;13.70;;;;;;;-0.99;100.00;101137.38;5214720;28;20123;-63
2022/01/08 00:26:01;;;;;;;14.52;13.10;;;;;;;-0.80;100.00;101151.00;5214733;28;20024;-64
2022/01/08 00:28:31;;;;;;;13.52;12.50;;;;;;;-0.78;100.00;101146.34;5214613;28;20114;-63
2022/01/08 00:31:03;;;;;;;14.18;13.27;;;;;;;-0.74;100.00;101152.16;5214610;28;20021;-64
2022/01/08 00:33:34;;;;;;;16.73;15.05;;;;;;;-0.70;100.00;101154.28;5212283;28;20017;-64
2022/01/08 00:36:06;;;;;;;14.65;13.30;;;;;;;-0.64;100.00;101157.22;5211455;28;20024;-64
2022/01/08 00:38:36;;;;;;;19.35;12.98;;;;;;;-0.54;100.00;101152.50;5211586;28;20122;-66
2022/01/08 00:41:07;;;;;;;15.02;13.73;;;;;;;-0.43;100.00;101157.41;5229239;28;20068;-64
2022/01/08 00:43:37;;;;;;;15.27;14.05;;;;;;;-0.34;100.00;101159.00;5210983;28;20024;-64
2022/01/08 00:46:08;;;;;;;16.55;14.60;;;;;;;-0.22;100.00;101162.06;5211208;28;20047;-64
2022/01/08 00:48:39;;;;;;;12.60;11.60;;;;;;;-0.11;100.00;101170.44;5211208;28;20021;-64
2022/01/08 00:51:09;;;;;;;13.98;12.60;;;;;;;0.00;100.00;101164.66;5210709;28;20028;-63
2022/01/08 00:53:40;;;;;;;16.23;14.45;;;;;;;0.04;100.00;101156.34;5210842;28;20028;-64
2022/01/08 00:56:14;;;;;;;16.67;13.88;;;;;;;0.06;100.00;101152.50;5210789;28;20119;-63
2022/01/08 00:58:44;;;;;;;21.17;15.63;;;;;;;0.02;100.00;101153.88;5210699;28;20021;-64
2022/01/08 01:01:15;;;;;;;14.85;13.38;;;;;;;-0.13;100.00;101145.06;5210769;28;20477;-64
2022/01/08 01:03:45;;;;;;;13.55;12.35;;;;;;;-0.24;100.00;101158.75;5210516;28;20418;-64
2022/01/08 01:06:16;;;;;;;14.55;13.27;;;;;;;-0.33;100.00;101165.13;5210839;28;20025;-63
2022/01/08 01:08:46;;;;;;;15.52;14.18;;;;;;;-0.45;100.00;101162.88;5210609;28;20020;-64
2022/01/08 01:11:16;;;;;;;14.82;11.57;;;;;;;-0.50;100.00;101162.59;5211116;28;20044;-63
2022/01/08 01:13:47;;;;;;;16.67;13.55;;;;;;;-0.53;100.00;101162.94;5210441;28;20052;-64
2022/01/08 01:16:19;;;;;;;15.45;12.38;;;;;;;-0.56;100.00;101157.16;5210386;28;20025;-64
2022/01/08 01:18:49;;;;;;;14.70;13.35;;;;;;;-0.59;100.00;101161.00;5210385;28;20020;-64
2022/01/08 01:21:20;;;;;;;16.45;13.30;;;;;;;-0.57;100.00;101161.63;5210047;28;20033;-65
2022/01/08 01:23:51;;;;;;;15.82;13.27;;;;;;;-0.65;100.00;101139.66;5210637;28;20028;-64
2022/01/08 01:26:25;;;;;;;15.63;13.63;;;;;;;-0.51;100.00;101158.28;5210396;28;20025;-64
2022/01/08 01:29:15;;;;;;;14.43;13.25;;;;;;;-0.57;100.00;101166.94;5210435;28;20547;-64
2022/01/08 01:48:30;;;;;;;14.50;13.25;;;;;;;-0.91;100.00;101199.13;5228238;28;20052;-63
2022/01/08 01:51:01;;;;;;;15.45;13.90;;;;;;;-0.92;100.00;101202.78;5228210;28;20021;-64
2022/01/08 01:53:31;;;;;;;12.75;11.60;;;;;;;-0.97;100.00;101193.69;5210111;28;20079;-64
2022/01/08 01:56:02;;;;;;;24.60;12.68;;;;;;;-0.94;100.00;101196.84;5209591;28;20067;-64
2022/01/08 01:58:32;;;;;;;12.82;11.88;;;;;;;-0.90;100.00;101203.44;5209502;28;20389;-63
2022/01/08 02:01:03;;;;;;;13.45;11.98;;;;;;;-0.95;100.00;101205.78;5209814;28;20315;-64
2022/01/08 02:03:34;;;;;;;12.63;11.63;;;;;;;-0.96;100.00;101205.94;5209961;28;20059;-64
2022/01/08 02:06:05;;;;;;;11.15;10.23;;;;;;;-0.96;100.00;101221.84;5209702;28;20024;-64
2022/01/08 02:08:38;;;;;;;12.68;11.27;;;;;;;-1.10;100.00;101197.72;5209658;28;20029;-64
2022/01/08 02:11:08;;;;;;;11.90;11.18;;;;;;;-0.94;100.00;101223.34;5209397;28;20039;-64
2022/01/08 02:13:39;;;;;;;11.20;10.40;;;;;;;-0.95;100.00;101218.22;5209168;28;20029;-64
2022/01/08 02:16:16;;;;;;;10.55;9.90;;;;;;;-0.92;100.00;101216.03;5209596;28;20028;-64
2022/01/08 02:18:47;;;;;;;11.63;10.45;;;;;;;-0.95;100.00;101219.03;5209258;28;20048;-64
2022/01/08 02:21:18;;;;;;;9.80;9.05;;;;;;;-0.94;100.00;101214.56;5209272;28;20040;-63
2022/01/08 02:23:48;;;;;;;11.02;9.85;;;;;;;-0.98;100.00;101214.06;5209159;28;20033;-64
2022/01/08 02:26:19;;;;;;;12.13;9.63;;;;;;;-1.01;100.00;101219.72;5209243;28;20059;-63
2022/01/08 02:28:49;;;;;;;13.23;11.85;;;;;;;-1.09;100.00;101203.84;5208918;28;20028;-64
2022/01/08 02:31:22;;;;;;;12.02;10.77;;;;;;;-1.12;100.00;101212.13;5209061;28;20027;-64
2022/01/08 02:33:53;;;;;;;17.00;11.48;;;;;;;-1.10;100.00;101215.44;5208479;28;20484;-64
2022/01/08 02:36:24;;;;;;;12.02;10.90;;;;;;;-1.15;100.00;101208.00;5209160;28;20492;-65
2022/01/08 02:38:54;;;;;;;15.10;11.35;;;;;;;-1.20;100.00;101212.19;5208851;28;20079;-64
2022/01/08 02:41:27;;;;;;;13.38;11.32;;;;;;;-1.23;100.00;101205.38;5208770;28;20025;-65
2022/01/08 02:43:57;;;;;;;10.73;9.77;;;;;;;-1.24;100.00;101202.91;5208956;28;20032;-64
2022/01/08 02:46:29;;;;;;;11.93;10.88;;;;;;;-1.28;100.00;101206.88;5209150;28;20370;-65
2022/01/08 02:48:59;;;;;;;10.38;8.50;;;;;;;-1.40;100.00;101194.00;5208560;28;20025;-64
2022/01/08 02:51:33;;;;;;;10.57;9.68;;;;;;;-1.46;100.00;101192.06;5208592;28;20098;-64
2022/01/08 02:54:08;;;;;;;8.77;8.18;;;;;;;-1.31;100.00;101223.94;5208722;28;20486;-64
2022/01/08 02:56:41;;;;;;;8.13;7.57;;;;;;;-1.36;100.00;101218.31;5225626;28;20025;-64
2022/01/08 02:59:13;;;;;;;9.13;8.50;;;;;;;-1.38;100.00;101220.31;5208458;28;20037;-64
2022/01/08 03:01:45;;;;;;;7.72;7.30;;;;;;;-1.42;100.00;101216.34;5208485;28;20518;-64
2022/01/08 03:04:15;;;;;;;12.00;9.90;;;;;;;-1.55;100.00;101211.59;5208448;28;20028;-64
2022/01/08 03:06:46;;;;;;;11.23;9.48;;;;;;;-1.49;100.00;101218.88;5208548;28;20481;-65
2022/01/08 03:09:16;;;;;;;9.07;8.40;;;;;;;-1.55;100.00;101219.53;5208443;28;20056;-64
2022/01/08 03:11:47;;;;;;;7.88;7.30;;;;;;;-1.60;100.00;101221.84;5208499;28;20021;-64
2022/01/08 03:14:17;;;;;;;9.02;8.10;;;;;;;-1.62;100.00;101229.13;5208470;28;20029;-65
2022/01/08 03:16:48;;;;;;;9.65;8.82;;;;;;;-1.66;100.00;101224.34;5208533;28;20039;-64
2022/01/08 03:19:18;;;;;;;10.02;9.15;;;;;;;-1.65;100.00;101218.88;5208206;28;20017;-64
2022/01/08 03:21:52;;;;;;;9.32;8.65;;;;;;;-1.67;100.00;101223.50;5208387;28;20063;-64
2022/01/08 03:24:28;;;;;;;7.93;7.43;;;;;;;-1.74;100.00;101225.19;5208163;28;20477;-64
2022/01/08 03:26:59;;;;;;;8.02;7.47;;;;;;;-1.84;100.00;101228.00;5208429;28;20052;-65
2022/01/08 03:29:29;;;;;;;8.40;7.55;;;;;;;-1.85;100.00;101223.72;5208312;28;20065;-64
2022/01/08 03:32:00;;;;;;;9.73;9.00;;;;;;;-1.90;100.00;101233.13;5208190;28;20021;-64
2022/01/08 03:34:30;;;;;;;8.45;6.72;;;;;;;-2.09;100.00;101202.53;5207972;28;20499;-68
2022/01/08 03:37:01;;;;;;;8.52;7.68;;;;;;;-1.93;100.00;101220.22;5226238;28;20055;-64
2022/01/08 03:39:31;;;;;;;10.07;9.05;;;;;;;-2.01;100.00;101209.63;5208258;28;20028;-64
2022/01/08 03:42:02;;;;;;;10.48;9.68;;;;;;;-2.02;100.00;101210.66;5208226;28;20033;-65
2022/01/08 03:44:33;;;;;;;7.00;6.43;;;;;;;-1.87;100.00;101217.75;5207968;28;20025;-64
2022/01/08 03:50:12;;;;;;;9.98;9.10;;;;;;;-1.90;100.00;101220.72;5162178;28;20041;-64
2022/01/08 03:52:45;;;;;;;9.52;8.82;;;;;;;-1.95;100.00;101212.44;5162115;28;20027;-64
2022/01/08 03:55:16;;;;;;;10.13;9.38;;;;;;;-1.93;100.00;101214.94;5189851;28;20037;-64
2022/01/08 03:57:46;;;;;;;10.25;9.45;;;;;;;-1.94;100.00;101223.88;5222473;22;20056;-63
2022/01/08 04:00:17;;;;;;;10.88;10.05;;;;;;;-2.10;100.00;101214.13;5217754;28;20442;-63
2022/01/08 04:02:48;;;;;;;11.60;10.45;;;;;;;-2.01;100.00;101220.22;5228261;28;20074;-62
2022/01/08 04:05:19;;;;;;;10.40;9.65;;;;;;;-1.97;100.00;101232.13;5227900;28;20025;-62
2022/01/08 04:07:49;;;;;;;12.40;11.40;;;;;;;-1.98;100.00;101233.13;5228231;28;20024;-63
2022/01/08 04:10:20;;;;;;;10.15;9.43;;;;;;;-1.98;100.00;101233.94;5231001;28;20082;-63
2022/01/08 04:12:55;;;;;;;13.05;12.10;;;;;;;-2.20;100.00;101194.91;5232126;28;20035;-64
2022/01/08 04:17:56;;;;;;;11.60;10.82;;;;;;;-2.01;100.00;101241.38;5249716;28;20032;-63
2022/01/08 04:20:27;;;;;;;13.55;12.25;;;;;;;-2.04;100.00;101232.00;5231682;28;20116;-63
2022/01/08 04:22:58;;;;;;;13.63;12.45;;;;;;;-2.02;100.00;101229.97;5231923;28;20399;-65
2022/01/08 04:25:28;;;;;;;11.88;10.95;;;;;;;-2.04;100.00;101239.94;5231743;28;20031;-64
2022/01/08 04:27:59;;;;;;;14.38;11.38;;;;;;;-1.99;100.00;101236.75;5231537;28;20062;-64
2022/01/08 04:30:29;;;;;;;12.32;11.52;;;;;;;-1.99;100.00;101245.53;5231622;28;20098;-62
2022/01/08 04:33:00;;;;;;;12.55;11.65;;;;;;;-1.94;100.00;101252.97;5231700;28;20036;-63
2022/01/08 04:35:30;;;;;;;11.23;10.40;;;;;;;-2.01;100.00;101241.38;5231517;28;20082;-63
2022/01/08 04:38:01;;;;;;;12.18;10.65;;;;;;;-1.90;100.00;101264.91;5231363;28;20111;-62
2022/01/08 04:40:32;;;;;;;11.70;10.43;;;;;;;-1.90;100.00;101263.06;5231432;28;20388;-64
2022/01/08 04:43:03;;;;;;;12.32;11.32;;;;;;;-1.90;100.00;101259.59;5231346;28;20032;-64
2022/01/08 04:45:34;;;;;;;12.82;11.60;;;;;;;-2.09;100.00;101248.34;5231426;28;20021;-63
2022/01/08 04:48:06;;;;;;;11.07;10.27;;;;;;;-1.92;100.00;101275.63;5231462;28;20029;-64
2022/01/08 04:50:36;;;;;;;12.05;11.10;;;;;;;-1.92;100.00;101283.59;5231078;28;20024;-64
2022/01/08 04:53:07;;;;;;;11.18;10.45;;;;;;;-1.92;100.00;101277.47;5231404;28;20020;-65
2022/01/08 04:55:38;;;;;;;11.48;10.77;;;;;;;-1.86;100.00;101277.63;5231055;28;20388;-63
2022/01/08 04:58:09;;;;;;;25.60;10.40;;;;;;;-1.85;100.00;101278.47;5230967;28;20090;-63
2022/01/08 05:00:40;;;;;;;15.95;10.50;;;;;;;-1.86;100.00;101282.09;5231106;28;20032;-63
2022/01/08 05:03:10;;;;;;;13.35;11.75;;;;;;;-1.91;100.00;101274.66;5230895;28;20029;-62
2022/01/08 05:05:41;;;;;;;12.48;11.30;;;;;;;-2.01;100.00;101263.38;5231043;28;20094;-65
2022/01/08 05:08:11;;;;;;;11.85;10.65;;;;;;;-1.94;100.00;101274.97;5231016;28;20384;-63
2022/01/08 05:10:42;;;;;;;12.68;11.68;;;;;;;-2.22;100.00;101249.81;5230730;28;20032;-62
2022/01/08 05:13:12;;;;;;;14.35;12.57;;;;;;;-1.97;100.00;101255.94;5230850;28;20476;-63
2022/01/08 05:15:43;;;;;;;12.82;10.85;;;;;;;-1.91;100.00;101269.34;5230825;28;20492;-63
2022/01/08 05:18:13;;;;;;;14.65;11.82;;;;;;;-1.87;100.00;101275.16;5230726;28;20021;-64
2022/01/08 05:20:53;;;;;;;12.02;11.15;;;;;;;-1.85;100.00;101278.47;5230158;28;20028;-63
2022/01/08 05:23:23;;;;;;;16.38;12.88;;;;;;;-1.82;100.00;101278.13;5230469;28;20036;-63
2022/01/08 05:25:54;;;;;;;12.57;11.45;;;;;;;-1.74;100.00;101276.34;5230539;28;20066;-63
2022/01/08 05:28:24;;;;;;;13.80;12.20;;;;;;;-1.66;100.00;101264.88;5230493;28;20021;-64
2022/01/08 05:30:55;;;;;;;13.52;12.18;;;;;;;-1.55;100.00;101275.16;5230638;28;20070;-65
2022/01/08 05:33:25;;;;;;;12.13;11.27;;;;;;;-1.61;100.00;101251.16;5230339;28;20392;-64
2022/01/08 05:35:56;;;;;;;12.52;11.73;;;;;;;-1.59;100.00;101249.16;5230488;28;20055;-64
2022/01/08 05:38:26;;;;;;;14.95;13.48;;;;;;;-1.32;100.00;101266.50;5230112;28;20024;-62
2022/01/08 05:40:57;;;;;;;13.93;12.75;;;;;;;-1.24;100.00;101274.44;5230202;28;20498;-63
2022/01/08 05:43:27;;;;;;;16.40;14.82;;;;;;;-1.23;100.00;101262.84;5230033;28;20403;-64
2022/01/08 05:45:58;;;;;;;20.90;14.48;;;;;;;-1.11;100.00;101280.03;5230257;28;20127;-63
2022/01/08 05:48:28;;;;;;;13.32;12.30;;;;;;;-1.05;100.00;101279.34;5230292;28;20016;-63
2022/01/08 05:50:59;;;;;;;13.20;12.13;;;;;;;-1.00;100.00;101276.22;5229925;28;20024;-63
2022/01/08 05:53:30;;;;;;;15.32;14.02;;;;;;;-0.96;100.00;101288.13;5229929;28;20035;-62
2022/01/08 05:56:01;;;;;;;12.98;11.95;;;;;;;-0.91;100.00;101288.44;5229997;28;20020;-64
2022/01/08 05:58:32;;;;;;;14.55;13.45;;;;;;;-0.90;100.00;101292.75;5229977;28;20396;-64
2022/01/08 06:01:02;;;;;;;13.57;12.38;;;;;;;-1.04;100.00;101270.41;5229808;28;20040;-62
2022/01/08 06:03:32;;;;;;;18.50;13.18;;;;;;;-0.86;100.00;101299.34;5229529;28;20032;-64
2022/01/08 06:06:03;;;;;;;14.60;13.25;;;;;;;-0.88;100.00;101296.06;5230043;28;20020;-62
2022/01/08 06:08:33;;;;;;;15.35;14.05;;;;;;;-0.87;100.00;101297.72;5229698;28;20369;-64
2022/01/08 06:11:04;;;;;;;14.15;12.93;;;;;;;-0.91;100.00;101296.41;5229601;28;20477;-64
2022/01/08 06:13:34;;;;;;;15.82;13.98;;;;;;;-0.93;100.00;101295.75;5229393;28;20388;-64
2022/01/08 06:16:05;;;;;;;15.43;13.77;;;;;;;-0.95;100.00;101317.13;5229672;28;20016;-64
2022/01/08 06:18:36;;;;;;;14.90;12.90;;;;;;;-0.99;100.00;101310.50;5229444;28;20020;-64
2022/01/08 06:21:07;;;;;;;16.08;14.48;;;;;;;-1.08;100.00;101291.13;5229390;28;20036;-62
2022/01/08 06:23:38;;;;;;;14.45;13.45;;;;;;;-1.04;100.00;101296.91;5229381;28;20056;-64
2022/01/08 06:26:09;;;;;;;14.13;13.02;;;;;;;-0.99;100.00;101293.75;5229339;28;20025;-64
2022/01/08 06:28:40;;;;;;;15.57;13.65;;;;;;;-1.04;100.00;101294.25;5229213;28;20020;-63
2022/01/08 06:31:10;;;;;;;15.25;13.82;;;;;;;-1.05;100.00;101295.25;5228774;28;20035;-63
2022/01/08 06:33:42;;;;;;;14.25;12.70;;;;;;;-1.09;100.00;101292.13;5228803;28;20070;-64
2022/01/08 06:36:13;;;;;;;20.45;17.77;;;;;;;-1.10;100.00;101285.16;5229057;28;20511;-63
2022/01/08 06:38:44;;;;;;;19.27;17.48;;;;;;;-1.10;100.00;101279.03;5229097;28;20028;-62
2022/01/08 06:41:15;;;;;;;18.33;16.85;;;;;;;-1.21;100.00;101258.22;5229305;28;20027;-62
2022/01/08 06:43:46;;;;;;;15.85;14.65;;;;;;;-1.16;100.00;101269.13;5228879;28;20031;-64
2022/01/08 06:46:16;;;;;;;21.10;19.42;;;;;;;-1.10;100.00;101269.25;5229030;28;20024;-63
2022/01/08 06:48:46;;;;;;;17.60;15.70;;;;;;;-1.12;100.00;101279.19;5229002;28;20023;-63
2022/01/08 06:51:17;;;;;;;20.13;18.63;;;;;;;-1.15;100.00;101276.06;5224591;28;20032;-62
2022/01/08 06:53:47;;;;;;;19.13;17.48;;;;;;;-1.13;100.00;101282.03;5246762;28;20020;-62
2022/01/08 06:56:18;;;;;;;20.25;18.27;;;;;;;-1.25;100.00;101256.91;5228899;28;20024;-64
2022/01/08 06:58:49;;;;;;;20.00;18.17;;;;;;;-1.12;100.00;101273.06;5228402;28;20021;-64
2022/01/08 07:01:21;;;;;;;22.77;20.77;;;;;;;-1.09;100.00;101270.91;5228614;28;20032;-63
2022/01/08 07:03:52;;;;;;;23.30;20.80;;;;;;;-1.07;100.00;101270.75;5228740;28;20382;-62
2022/01/08 07:06:22;;;;;;;23.00;20.85;;;;;;;-1.03;100.00;101272.91;5228611;28;20036;-63
2022/01/08 07:08:54;;;;;;;23.67;20.77;;;;;;;-1.01;100.00;101272.72;5228505;28;20062;-64
2022/01/08 07:11:25;;;;;;;25.98;23.13;;;;;;;-0.97;100.00;101274.03;5228491;28;20484;-64
2022/01/08 07:13:55;;;;;;;24.00;21.92;;;;;;;-0.94;100.00;101271.06;5228544;28;20089;-64
2022/01/08 07:16:25;;;;;;;28.33;25.65;;;;;;;-0.86;100.00;101273.66;5228695;28;20038;-64
2022/01/08 07:18:56;;;;;;;26.30;23.67;;;;;;;-0.83;100.00;101275.97;5228661;28;20024;-64
2022/01/08 07:21:27;;;;;;;26.98;24.45;;;;;;;-0.82;100.00;101266.19;5227718;28;20501;-63
2022/01/08 07:23:57;;;;;;;28.17;25.13;;;;;;;-0.79;100.00;101263.19;5220968;28;20020;-64
2022/01/08 07:26:28;;;;;;;30.95;27.85;;;;;;;-0.74;100.00;101267.00;5208060;28;20399;-64
2022/01/08 07:28:58;;;;;;;40.72;30.10;;;;;;;-0.74;100.00;101259.03;5207881;28;20032;-64
2022/01/08 07:31:29;;;;;;;32.20;28.83;;;;;;;-1.06;100.00;101200.84;5207478;28;20025;-64
2022/01/08 07:33:59;;;;;;;29.45;26.48;;;;;;;-0.66;100.00;101262.66;5207486;28;20127;-62
2022/01/08 07:36:29;;;;;;;39.38;29.27;;;;;;;-0.82;100.00;101235.19;5207689;28;20463;-64
2022/01/08 07:39:00;;;;;;;32.15;29.13;;;;;;;-0.58;100.00;101254.66;5207703;28;20025;-64
2022/01/08 07:41:30;;;;;;;32.03;29.30;;;;;;;-0.64;100.00;101228.84;5207618;28;20036;-64
2022/01/08 07:44:01;;;;;;;33.65;30.05;;;;;;;-0.50;100.00;101254.59;5210186;28;20020;-64
2022/01/08 07:46:31;;;;;;;33.28;30.10;;;;;;;-0.48;100.00;101248.13;5212068;28;20021;-64
2022/01/08 07:49:02;;;;;;;34.80;31.83;;;;;;;-0.49;100.00;101240.34;5211905;28;20094;-63
2022/01/08 07:51:32;;;;;;;36.33;32.53;;;;;;;-0.48;100.00;101245.47;5211883;28;20051;-64
2022/01/08 07:54:02;;;;;;;35.10;31.73;;;;;;;-0.42;100.00;101251.91;5229667;28;20056;-64
2022/01/08 07:56:35;;;;;;;30.52;27.98;;;;;;;-0.42;100.00;101251.91;5211697;28;20504;-64
2022/01/08 07:59:06;;;;;;;33.83;30.52;;;;;;;-0.42;100.00;101251.91;5211533;28;20032;-64
2022/01/08 08:01:36;;;;;;;33.83;30.55;;;;;;;-0.45;100.00;101244.31;5211568;28;20037;-64
2022/01/08 08:04:07;;;;;;;39.88;36.40;;;;;;;-0.35;100.00;101260.84;5211430;28;20021;-64
2022/01/08 08:06:46;;;;;;;33.25;29.92;;;;;;;-0.31;100.00;101251.53;5211526;28;20378;-63
2022/01/08 08:09:16;;;;;;;31.17;27.87;;;;;;;-0.30;100.00;101250.53;5211507;28;20028;-64
2022/01/08 08:11:47;;;;;;;34.75;31.30;;;;;;;-0.31;100.00;101237.44;5211277;28;20024;-64
2022/01/08 08:14:17;;;;;;;34.65;31.33;;;;;;;-0.23;100.00;101250.63;5211127;28;20085;-64
2022/01/08 08:16:48;;;;;;;31.50;28.30;;;;;;;-0.20;100.00;101239.66;5211634;28;20029;-64
2022/01/08 08:19:18;;;;;;;33.58;29.60;;;;;;;-0.18;100.00;101233.19;5211072;28;20528;-62
2022/01/08 08:21:49;;;;;;;34.85;27.70;;;;;;;-0.14;100.00;101239.78;5211361;28;20033;-63
2022/01/08 08:24:20;;;;;;;38.55;27.25;;;;;;;-0.16;100.00;101225.88;5210936;28;20060;-63
2022/01/08 08:26:51;;;;;;;32.42;29.08;;;;;;;-0.07;100.00;101222.16;5211279;28;20025;-63
2022/01/08 08:29:21;;;;;;;33.15;29.88;;;;;;;-0.15;100.00;101200.97;5211005;28;20021;-64
2022/01/08 08:31:52;;;;;;;32.75;28.58;;;;;;;0.04;100.00;101212.09;5211082;28;20056;-64
2022/01/08 08:34:22;;;;;;;40.28;28.17;;;;;;;0.08;100.00;101222.19;5210933;28;20033;-64
2022/01/08 08:36:53;;;;;;;28.17;25.27;;;;;;;0.09;100.00;101207.91;5211227;28;20573;-60
2022/01/08 08:39:25;;;;;;;29.48;26.48;;;;;;;0.08;100.00;101195.66;5210837;28;20029;-63
2022/01/08 08:41:55;;;;;;;32.25;25.40;;;;;;;0.16;100.00;101197.41;5210854;28;20025;-61
2022/01/08 08:44:27;;;;;;;28.50;25.90;;;;;;;0.09;100.00;101192.00;5210286;28;20043;-61
2022/01/08 08:46:57;;;;;;;44.85;27.88;;;;;;;0.23;100.00;101201.00;5210775;28;20039;-63
2022/01/08 08:49:27;;;;;;;27.90;25.15;;;;;;;0.28;100.00;101195.97;5210733;28;20341;-62
2022/01/08 08:51:58;;;;;;;30.15;26.25;;;;;;;0.33;100.00;101201.56;5210764;28;20025;-61
2022/01/08 08:54:29;;;;;;;32.20;28.85;;;;;;;0.29;100.00;101185.16;5209445;28;20104;-64
2022/01/08 08:57:00;;;;;;;30.02;26.52;;;;;;;0.42;100.00;101189.84;5210329;28;20397;-63
2022/01/08 08:59:30;;;;;;;32.35;29.02;;;;;;;0.46;100.00;101191.16;5210540;28;20033;-63
2022/01/08 09:02:00;;;;;;;28.60;25.67;;;;;;;0.48;100.00;101183.81;5210537;28;20425;-64
2022/01/08 09:04:31;;;;;;;28.48;25.52;;;;;;;0.56;100.00;101183.75;5210401;28;20021;-64
2022/01/08 09:07:01;;;;;;;31.30;27.88;;;;;;;0.59;100.00;101182.53;5210338;28;20021;-65
2022/01/08 09:09:32;;;;;;;31.83;28.67;;;;;;;0.52;100.00;101166.50;5210245;28;20024;-65
2022/01/08 09:12:04;;;;;;;29.33;26.35;;;;;;;0.67;100.00;101172.63;5210161;28;20037;-62
2022/01/08 09:14:34;;;;;;;29.08;26.05;;;;;;;0.67;100.00;101172.63;5210130;28;20412;-63
2022/01/08 09:17:05;;;;;;;28.08;25.40;;;;;;;0.74;100.00;101179.88;5210214;28;20032;-61
2022/01/08 09:19:36;;;;;;;22.25;20.23;;;;;;;0.70;100.00;101152.00;5210133;28;20047;-61
2022/01/08 09:22:06;;;;;;;29.90;26.88;;;;;;;0.84;100.00;101164.50;5210285;28;20119;-64
2022/01/08 09:24:37;;;;;;;33.72;24.50;;;;;;;0.86;100.00;101157.97;5209753;28;20112;-60
2022/01/08 09:27:11;;;;;;;28.73;25.55;;;;;;;0.96;100.00;101162.97;5209964;28;20028;-59
2022/01/08 09:29:42;;;;;;;38.05;25.02;;;;;;;1.05;100.00;101155.72;5210137;28;20017;-59
2022/01/08 09:32:13;;;;;;;26.20;23.70;;;;;;;1.12;100.00;101152.16;5209897;28;20107;-61
2022/01/08 09:34:45;;;;;;;23.63;21.48;;;;;;;1.17;100.00;101157.72;5209772;28;20112;-63
2022/01/08 09:37:15;;;;;;;24.90;22.63;;;;;;;1.22;100.00;101149.16;5210045;28;20036;-63
2022/01/08 09:39:46;;;;;;;24.70;22.20;;;;;;;1.27;100.00;101142.28;5209733;28;20021;-60
2022/01/08 09:42:16;;;;;;;24.95;22.38;;;;;;;1.00;100.00;101095.97;5209780;28;20028;-60
2022/01/08 09:44:47;;;;;;;26.02;23.13;;;;;;;1.32;100.00;101136.41;5209377;28;20036;-62
2022/01/08 09:47:17;;;;;;;26.38;22.80;;;;;;;1.34;100.00;101134.38;5227445;28;20048;-62
2022/01/08 09:49:49;;;;;;;22.77;20.23;;;;;;;1.21;100.00;101103.13;5209659;28;20484;-63
2022/01/08 09:52:19;;;;;;;20.98;18.83;;;;;;;1.44;100.00;101112.78;5209386;28;20025;-62
2022/01/08 09:54:50;;;;;;;24.90;21.30;;;;;;;1.49;100.00;101107.69;5209400;28;20036;-66
2022/01/08 09:57:20;;;;;;;18.95;17.10;;;;;;;1.55;100.00;101093.63;5209273;28;20484;-63
2022/01/08 09:59:51;;;;;;;17.55;16.02;;;;;;;1.60;100.00;101088.56;5209457;28;20032;-61
2022/01/08 10:02:23;;;;;;;19.30;17.35;;;;;;;1.44;100.00;101057.72;5209205;28;20447;-62
2022/01/08 10:05:07;;;;;;;19.35;17.50;;;;;;;1.55;100.00;101056.38;5209182;28;20083;-61
2022/01/08 10:07:40;;;;;;;22.58;14.50;;;;;;;1.67;100.00;101068.97;5209435;28;20029;-60
2022/01/08 10:10:17;;;;;;;20.70;14.82;;;;;;;1.67;100.00;101060.16;5209306;28;20501;-62
2022/01/08 10:13:00;;;;;;;14.35;12.90;;;;;;;1.51;100.00;101026.66;5209013;28;20032;-60
2022/01/08 10:18:30;;;;;;;19.65;12.70;;;;;;;1.80;100.00;101038.94;5227016;28;20036;-62
2022/01/08 10:21:23;;;;;;;16.15;14.43;;;;;;;1.81;100.00;101015.81;5208663;28;20056;-62
2022/01/08 10:24:00;;;;;;;13.52;11.95;;;;;;;1.84;100.00;101013.59;5208520;28;20103;-61
2022/01/08 10:26:33;;;;;;;11.52;10.43;;;;;;;1.80;100.00;100990.22;5208418;28;20081;-63
2022/01/08 10:29:09;;;;;;;16.17;11.07;;;;;;;1.88;100.00;101000.72;5226584;28;20492;-62
2022/01/08 10:31:42;;;;;;;11.90;10.65;;;;;;;1.88;100.00;100982.91;5208404;28;20039;-63
2022/01/08 10:34:22;;;;;;;9.15;8.50;;;;;;;1.93;100.00;100996.44;5208203;28;20607;-62
2022/01/08 10:37:00;;;;;;;10.40;9.67;;;;;;;1.98;100.00;100990.53;5208213;28;20025;-62
2022/01/08 10:39:32;;;;;;;11.80;10.85;;;;;;;2.01;100.00;100990.16;5208332;28;20294;-63
2022/01/08 10:42:15;;;;;;;9.32;8.52;;;;;;;2.11;100.00;100973.78;5208235;28;20029;-63
2022/01/08 10:44:50;;;;;;;10.48;9.48;;;;;;;2.19;100.00;100973.63;5207959;28;20028;-63
2022/01/08 10:47:21;;;;;;;14.13;8.80;;;;;;;2.29;100.00;100966.91;5208045;28;20401;-63
2022/01/08 10:50:05;;;;;;;10.48;9.48;;;;;;;2.34;100.00;100958.31;5208170;28;20017;-63
2022/01/08 10:52:46;;;;;;;10.57;9.75;;;;;;;2.27;100.00;100941.50;5208084;28;20021;-63
2022/01/08 10:55:32;;;;;;;8.88;7.97;;;;;;;2.41;100.00;100935.16;5207733;28;20071;-62
2022/01/08 10:58:03;;;;;;;12.68;6.85;;;;;;;2.44;100.00;100932.09;5218540;28;20485;-63
2022/01/08 11:00:33;;;;;;;9.82;7.57;;;;;;;2.46;100.00;100926.56;5228648;28;20034;-61
2022/01/08 11:03:04;;;;;;;8.73;7.97;;;;;;;2.47;100.00;100922.88;5229282;28;20064;-63
2022/01/08 11:06:03;;;;;;;8.25;7.70;;;;;;;2.49;100.00;100921.66;5228924;28;20070;-62
2022/01/08 11:08:34;;;;;;;8.47;7.97;;;;;;;2.54;100.00;100905.06;5228728;28;20499;-63
2022/01/08 11:11:05;;;;;;;9.02;8.15;;;;;;;2.60;100.00;100901.59;5228672;28;20822;-63
2022/01/08 11:13:38;;;;;;;7.63;7.13;;;;;;;2.61;100.00;100892.56;5228453;28;20115;-63
2022/01/08 11:16:08;;;;;;;7.63;7.10;;;;;;;2.68;100.00;100888.88;5228683;28;20032;-63
2022/01/08 11:18:39;;;;;;;9.73;8.07;;;;;;;2.74;100.00;100873.09;5228194;28;20028;-62
2022/01/08 11:21:10;;;;;;;7.18;6.55;;;;;;;2.77;100.00;100875.34;5228736;28;20036;-62
2022/01/08 11:23:41;;;;;;;10.18;6.55;;;;;;;2.81;100.00;100868.59;5227524;28;20225;-62
2022/01/08 11:26:12;;;;;;;6.85;6.35;;;;;;;2.82;100.00;100852.38;5228134;28;20032;-63
2022/01/08 11:28:46;;;;;;;9.63;5.40;;;;;;;2.91;100.00;100850.31;5228740;28;20024;-61
2022/01/08 11:31:18;;;;;;;5.82;5.32;;;;;;;2.95;100.00;100846.22;5228712;28;20034;-63
2022/01/08 11:33:55;;;;;;;6.93;6.30;;;;;;;2.98;100.00;100845.81;5228596;28;20020;-62
2022/01/08 11:36:26;;;;;;;6.07;5.63;;;;;;;2.99;100.00;100828.78;5228823;28;20048;-61
2022/01/08 11:38:57;;;;;;;8.77;6.25;;;;;;;2.96;100.00;100814.00;5228659;28;20028;-62
2022/01/08 11:41:31;;;;;;;6.38;5.78;;;;;;;3.00;100.00;100817.91;5228501;28;20047;-62
2022/01/08 11:44:04;;;;;;;16.92;6.20;;;;;;;2.98;100.00;100800.47;5228483;28;20119;-62
2022/01/08 11:46:37;;;;;;;6.05;5.68;;;;;;;2.97;100.00;100788.16;5228599;28;20488;-62
2022/01/08 11:49:08;;;;;;;9.35;7.38;;;;;;;2.94;100.00;100781.38;5228527;28;20473;-60
2022/01/08 11:51:39;;;;;;;5.45;5.15;;;;;;;2.96;100.00;100767.84;5228434;28;20115;-60